Almaty, Kazakhstan
Current Conditions -  °F | °C
As of 6:30 AM on Thursday 23 Oct 2014 (Local Time) from UAAA Reporting Station
Scattered Clouds Scattered Clouds  
Wind Chill: 44°   Ceiling: Unl
Heat Index: 46°   Visibility: 6mi
Dew Point: 41°   Wind: 4mph
Humidity: 81%   Direction: 180°S
Pressure: 29.85"   Gusts: NA
Location:  43.32°N, 76.92°E
Report Text: UAAA 230030Z 18002MPS 9999 SCT200 08/05 Q1011 R88/CLRD65 NOSIG
Loading
Personal Weather Stations






























Interactive Weather Map New forecast layout! Learn more

10-Day Weather Forecast

Advertisements
Track Severe Weather on mobile